Aullville, Missouri
Current Conditions -  °F | °C
As of 1:55 PM on Thursday 23 Oct 2014 (Local Time) from KRCM Reporting Station
Overcast Overcast  
Wind Chill: 68°   Ceiling: 5000
Heat Index: 68°   Visibility: 10mi
Dew Point: 57°   Wind: 12mph
Humidity: 68%   Direction: 200°SSW
Pressure: 30.08"   Gusts: NA
Location:  39.0541°N, 93.6618°W
Report Text: KRCM 231855Z AUTO 20010KT 10SM SCT018 SCT038 OVC050 20/14 A3008 RMK AO2
Loading
Personal Weather Stations






























Interactive Weather Map
Tropical Storm Tracking
New forecast layout! Learn more

10-Day Weather Forecast

Advertisements
Track Severe Weather on mobile